Weather at Gore Bay Manitoulin Airport

Public forecast

Using degrees Celsius for public forecast. Weather courtesy of forecast.io.

Current aviation weather report (METAR) for Gore Bay Manitoulin Airport

2022/12/05 14:00 (retrieved 44 minutes ago)

CYZE 051400Z AUTO 23015G22KT 9SM CLR 02/M03 A2973 RMK SLP077

Aviation forecast (TAF) for Gore Bay Manitoulin Airport

2022/12/05 14:00 (retrieved 44 minutes ago)

TAF CYZE 051340Z 0514/0523 23015G25KT P6SM BKN040 FM051800 22015G25KT P6SM BKN140 FM052100 22012G22KT P6SM BKN100 RMK FCST BASED ON AUTO OBS NXT FCST BY 052000Z